createdAt,value
2022-11-24T00:04:45.528Z,14.8
2022-11-24T00:14:54.392Z,14.8
2022-11-24T00:25:03.140Z,14.8
2022-11-24T00:35:12.520Z,14.9
2022-11-24T00:45:21.148Z,14.7
2022-11-24T00:55:29.690Z,14.5
2022-11-24T01:05:38.302Z,14.4
2022-11-24T01:15:46.856Z,14.5
2022-11-24T01:25:55.575Z,14.4
2022-11-24T01:36:04.212Z,14.2
2022-11-24T01:46:12.950Z,14.1
2022-11-24T01:56:21.351Z,14
2022-11-24T02:06:29.956Z,13.8
2022-11-24T02:16:38.444Z,13.7
2022-11-24T02:26:46.922Z,13.6
2022-11-24T02:36:55.600Z,13.6
2022-11-24T02:47:04.383Z,13.6
2022-11-24T02:57:12.986Z,13.7
2022-11-24T03:07:21.632Z,14
2022-11-24T03:17:30.456Z,14
2022-11-24T03:27:39.164Z,14
2022-11-24T03:37:47.657Z,13.8
2022-11-24T03:47:56.195Z,13.6
2022-11-24T03:58:08.582Z,13.5
2022-11-24T04:08:07.411Z,13.6
2022-11-24T04:18:16.082Z,13.5
2022-11-24T04:28:24.823Z,13.6
2022-11-24T04:39:20.491Z,13.4
2022-11-24T04:48:43.903Z,13
2022-11-24T04:58:52.541Z,12.9
2022-11-24T05:09:00.090Z,12.8
2022-11-24T05:19:08.206Z,12.9
2022-11-24T05:29:16.421Z,13
2022-11-24T05:39:24.523Z,13
2022-11-24T05:49:32.564Z,12.9
2022-11-24T05:59:40.773Z,12.8
2022-11-24T06:09:48.821Z,12.6
2022-11-24T06:19:56.909Z,12.5
2022-11-24T06:30:05.030Z,12.6
2022-11-24T06:40:13.298Z,12.3
2022-11-24T06:50:21.859Z,12.1
2022-11-24T07:00:30.023Z,12.2
2022-11-24T07:10:38.387Z,12.2
2022-11-24T07:20:46.949Z,12.1
2022-11-24T07:30:57.835Z,12
2022-11-24T07:41:09.693Z,11.9
2022-11-24T07:51:22.734Z,12.5
2022-11-24T08:01:16.050Z,12.9
2022-11-24T08:11:15.255Z,12.9
2022-11-24T08:21:22.155Z,13
2022-11-24T08:31:30.278Z,13.3
2022-11-24T08:41:39.572Z,13.7
2022-11-24T08:51:47.777Z,13.3
2022-11-24T09:01:56.088Z,13.2
2022-11-24T09:12:04.178Z,13.6
2022-11-24T09:22:11.801Z,14.2
2022-11-24T09:32:19.973Z,14.4
2022-11-24T09:42:28.539Z,14.7
2022-11-24T09:52:36.781Z,14.9
2022-11-24T10:02:44.897Z,15.1
2022-11-24T10:12:52.944Z,15.4
2022-11-24T10:23:01.191Z,15.8
2022-11-24T10:33:09.416Z,16.1
2022-11-24T10:43:17.358Z,16.3
2022-11-24T10:53:25.681Z,16.2
2022-11-24T11:03:34.659Z,16.3
2022-11-24T11:13:42.817Z,16.6
2022-11-24T11:23:50.507Z,17.6
2022-11-24T11:34:08.213Z,18.3
2022-11-24T11:44:06.591Z,18.8
2022-11-24T11:54:15.046Z,19.1
2022-11-24T12:04:23.248Z,19.1
2022-11-24T12:14:30.990Z,18.6
2022-11-24T12:24:38.182Z,18.2
2022-11-24T12:34:47.441Z,17.9
2022-11-24T12:44:55.781Z,18.1
2022-11-24T12:55:04.181Z,18
2022-11-24T13:05:12.679Z,18.7
2022-11-24T13:15:43.806Z,19
2022-11-24T13:25:27.271Z,19.3
2022-11-24T13:35:36.050Z,19.1
2022-11-24T13:45:44.287Z,18.9
2022-11-24T13:55:52.555Z,19.5
2022-11-24T14:06:00.855Z,19.8
2022-11-24T14:16:02.917Z,19.5
2022-11-24T14:26:11.098Z,19.5
2022-11-24T14:36:19.374Z,19.5
2022-11-24T14:46:20.270Z,19.1
2022-11-24T14:56:28.450Z,19.3
2022-11-24T15:06:36.464Z,19.5
2022-11-24T15:16:39.684Z,19.3
2022-11-24T15:26:42.087Z,19.4
2022-11-24T15:36:49.247Z,19.2
2022-11-24T15:46:49.565Z,18.8
2022-11-24T15:56:57.607Z,18.6
2022-11-24T16:07:01.409Z,18.5
2022-11-24T16:17:03.010Z,18.3
2022-11-24T16:27:15.899Z,18.2
2022-11-24T16:37:14.484Z,18.2
2022-11-24T16:47:14.932Z,18.2
2022-11-24T16:57:16.194Z,18.1
2022-11-24T17:07:24.360Z,17.8
2022-11-24T17:17:32.509Z,17.7
2022-11-24T17:27:40.685Z,17.7
2022-11-24T17:37:49.243Z,17.8
2022-11-24T17:47:54.561Z,18
2022-11-24T17:58:03.661Z,17.5
2022-11-24T18:08:05.602Z,17.5
2022-11-24T18:18:14.068Z,17.3
2022-11-24T18:28:22.562Z,16.9
2022-11-24T18:38:31.255Z,17.2
2022-11-24T18:48:39.407Z,17.2
2022-11-24T18:58:47.436Z,17.3
2022-11-24T19:08:55.312Z,17.4
2022-11-24T19:19:07.492Z,17.4
2022-11-24T19:29:10.246Z,17.1
2022-11-24T19:39:27.471Z,17.4
2022-11-24T19:49:22.215Z,17.6
2022-11-24T19:59:22.486Z,17.5
2022-11-24T20:09:32.530Z,17.5
2022-11-24T20:19:32.468Z,17.9
2022-11-24T20:29:45.340Z,17.6
2022-11-24T20:39:52.190Z,17.2
2022-11-24T20:49:54.340Z,17.1
2022-11-24T20:59:57.701Z,17
2022-11-24T21:10:05.958Z,16.9
2022-11-24T21:20:14.104Z,16.8
2022-11-24T21:30:14.805Z,16.7
2022-11-24T21:40:23.393Z,16.6
2022-11-24T21:50:23.724Z,16.7
2022-11-24T22:00:30.117Z,16.5
2022-11-24T22:10:38.711Z,16.6
2022-11-24T22:20:46.943Z,16.6
2022-11-24T22:30:55.285Z,16.5
2022-11-24T22:41:04.413Z,16.5
2022-11-24T22:51:15.514Z,16.6
2022-11-24T23:01:13.562Z,16.3
2022-11-24T23:11:29.239Z,16.2
2022-11-24T23:21:22.903Z,16.3
2022-11-24T23:31:32.249Z,16.2
2022-11-24T23:41:40.382Z,16.1
2022-11-24T23:51:50.349Z,16
